createdAt,value
2018-05-31T00:02:17.977Z,100959.47
2018-05-31T00:04:46.124Z,100970.37
2018-05-31T00:07:14.236Z,100967.67
2018-05-31T00:09:42.390Z,100967.74
2018-05-31T00:12:10.505Z,100963.38
2018-05-31T00:14:38.653Z,100960.38
2018-05-31T00:17:06.791Z,100968.03
2018-05-31T00:19:34.911Z,100968.51
2018-05-31T00:22:03.067Z,100961.09
2018-05-31T00:24:31.194Z,100960.30
2018-05-31T00:26:59.360Z,100958.37
2018-05-31T00:29:27.482Z,100956.77
2018-05-31T00:31:55.630Z,100962.53
2018-05-31T00:34:23.752Z,100949.81
2018-05-31T00:36:51.870Z,100954.86
2018-05-31T00:39:20.381Z,100951.44
2018-05-31T00:41:48.492Z,100954.03
2018-05-31T00:44:16.642Z,100947.06
2018-05-31T00:46:44.772Z,100944.45
2018-05-31T00:49:12.902Z,100946.20
2018-05-31T00:51:41.051Z,100954.72
2018-05-31T00:54:09.224Z,100951.66
2018-05-31T00:56:37.365Z,100958.13
2018-05-31T00:59:05.484Z,100960.46
2018-05-31T01:01:33.619Z,100954.72
2018-05-31T01:04:01.771Z,100957.69
2018-05-31T01:06:29.894Z,100954.54
2018-05-31T01:08:58.026Z,100955.92
2018-05-31T01:11:26.169Z,100959.25
2018-05-31T01:13:54.293Z,100962.31
2018-05-31T01:16:22.426Z,100959.02
2018-05-31T01:18:50.577Z,100955.40
2018-05-31T01:21:18.688Z,100959.74
2018-05-31T01:23:46.857Z,100964.77
2018-05-31T01:26:14.997Z,100956.16
2018-05-31T01:28:43.233Z,100960.70
2018-05-31T01:31:11.344Z,100958.63
2018-05-31T01:33:39.472Z,100961.44
2018-05-31T01:36:07.624Z,100960.89
2018-05-31T01:38:35.758Z,100961.27
2018-05-31T01:41:03.918Z,100958.02
2018-05-31T01:43:32.038Z,100963.30
2018-05-31T01:46:00.182Z,100960.70
2018-05-31T01:48:28.345Z,100964.12
2018-05-31T01:50:56.466Z,100965.89
2018-05-31T01:53:24.870Z,100962.63
2018-05-31T01:55:53.015Z,100966.75
2018-05-31T01:58:21.152Z,100965.81
2018-05-31T02:00:49.282Z,100962.12
2018-05-31T02:03:17.415Z,100957.47
2018-05-31T02:05:45.571Z,100954.61
2018-05-31T02:08:13.684Z,100950.78
2018-05-31T02:10:41.836Z,100950.78
2018-05-31T02:13:09.982Z,100952.43
2018-05-31T02:15:38.122Z,100952.81
2018-05-31T02:18:06.270Z,100950.67
2018-05-31T02:20:34.402Z,100945.48
2018-05-31T02:23:02.538Z,100946.31
2018-05-31T02:25:30.693Z,100950.84
2018-05-31T02:27:58.838Z,100939.34
2018-05-31T02:30:26.995Z,100932.95
2018-05-31T02:32:55.134Z,100935.43
2018-05-31T02:35:23.289Z,100933.13
2018-05-31T02:37:51.825Z,100924.91
2018-05-31T02:40:19.965Z,100934.33
2018-05-31T02:42:48.113Z,100929.44
2018-05-31T02:45:16.246Z,100933.11
2018-05-31T02:47:44.382Z,100939.50
2018-05-31T02:50:12.540Z,100941.85
2018-05-31T02:52:40.675Z,100938.58
2018-05-31T02:55:09.200Z,100938.86
2018-05-31T02:57:37.349Z,100932.17
2018-05-31T03:00:05.477Z,100941.45
2018-05-31T03:02:33.643Z,100941.75
2018-05-31T03:05:01.779Z,100940.28
2018-05-31T03:07:29.929Z,100942.01
2018-05-31T03:09:58.055Z,100946.80
2018-05-31T03:12:26.186Z,100950.22
2018-05-31T03:14:54.329Z,100957.81
2018-05-31T03:17:22.461Z,100971.20
2018-05-31T03:19:50.758Z,100968.77
2018-05-31T03:22:18.905Z,100967.52
2018-05-31T03:24:47.037Z,100961.75
2018-05-31T03:27:15.183Z,100971.05
2018-05-31T03:29:43.329Z,100975.30
2018-05-31T03:32:11.473Z,100970.77
2018-05-31T03:34:39.605Z,100974.83
2018-05-31T03:37:07.742Z,100971.57
2018-05-31T03:39:35.867Z,100981.05
2018-05-31T03:42:03.995Z,100987.03
2018-05-31T03:44:32.146Z,100974.06
2018-05-31T03:47:00.301Z,100971.72
2018-05-31T03:49:28.452Z,100978.56
2018-05-31T03:51:56.594Z,100973.33
2018-05-31T03:54:24.722Z,100974.98
2018-05-31T03:56:52.885Z,100977.18
2018-05-31T03:59:21.379Z,100975.92
2018-05-31T04:01:50.353Z,100978.67
2018-05-31T04:04:18.491Z,100984.95
2018-05-31T04:06:46.623Z,100984.50
2018-05-31T04:09:14.789Z,100984.77
2018-05-31T04:11:42.916Z,100983.39
2018-05-31T04:14:11.049Z,100985.96
2018-05-31T04:16:39.181Z,100990.63
2018-05-31T04:19:07.319Z,100986.86
2018-05-31T04:21:35.493Z,100996.66
2018-05-31T04:24:03.659Z,101005.30
2018-05-31T04:26:31.892Z,101006.70
2018-05-31T04:29:00.034Z,101006.97
2018-05-31T04:31:28.173Z,101008.98
2018-05-31T04:33:56.320Z,101004.45
2018-05-31T04:36:24.469Z,101004.30
2018-05-31T04:38:52.620Z,101011.53
2018-05-31T04:41:20.777Z,101010.03
2018-05-31T04:43:48.913Z,101018.88
2018-05-31T04:46:17.085Z,101017.47
2018-05-31T04:48:45.196Z,101018.55
2018-05-31T04:51:13.334Z,101016.07
2018-05-31T04:53:41.478Z,101016.70
2018-05-31T04:56:09.635Z,101022.25
2018-05-31T04:58:38.048Z,101014.69
2018-05-31T05:01:06.170Z,101014.75
2018-05-31T05:03:34.360Z,101023.81
2018-05-31T05:06:02.494Z,101026.13
2018-05-31T05:08:30.626Z,101028.84
2018-05-31T05:10:58.774Z,101031.73
2018-05-31T05:13:26.914Z,101039.69
2018-05-31T05:15:55.027Z,101037.35
2018-05-31T05:18:23.202Z,101027.14
2018-05-31T05:20:51.334Z,101023.56
2018-05-31T05:23:19.464Z,101029.98
2018-05-31T05:25:47.661Z,101026.00
2018-05-31T05:28:15.797Z,101027.05
2018-05-31T05:30:43.960Z,101019.75
2018-05-31T05:33:12.108Z,101035.45
2018-05-31T05:35:40.238Z,101030.22
2018-05-31T05:38:08.381Z,101034.41
2018-05-31T05:40:36.500Z,101024.74
2018-05-31T05:43:04.643Z,101022.04
2018-05-31T05:45:32.760Z,101021.31
2018-05-31T05:48:00.924Z,101021.52
2018-05-31T05:50:29.051Z,101027.95
2018-05-31T05:52:57.193Z,101024.93
2018-05-31T05:55:25.337Z,101029.26
2018-05-31T05:57:53.479Z,101031.36
2018-05-31T06:00:21.661Z,101039.11
2018-05-31T06:02:51.695Z,101031.86
2018-05-31T06:05:19.838Z,101040.91
2018-05-31T06:07:47.997Z,101031.95
2018-05-31T06:10:16.167Z,101038.09
2018-05-31T06:12:44.251Z,101037.36
2018-05-31T06:15:12.364Z,101038.83
2018-05-31T06:17:40.523Z,101039.96
2018-05-31T06:20:08.654Z,101048.23
2018-05-31T06:22:36.769Z,101059.22
2018-05-31T06:25:04.917Z,101058.34
2018-05-31T06:27:33.036Z,101058.03
2018-05-31T06:30:01.172Z,101057.59
2018-05-31T06:32:29.684Z,101054.02
2018-05-31T06:34:57.828Z,101061.56
2018-05-31T06:37:25.987Z,101065.23
2018-05-31T06:40:00.099Z,101075.62
2018-05-31T06:42:28.998Z,101077.53
2018-05-31T06:44:57.139Z,101085.14
2018-05-31T06:47:25.313Z,101087.49
2018-05-31T06:49:53.449Z,101094.30
2018-05-31T06:52:21.582Z,101101.93
2018-05-31T06:54:49.722Z,101101.93
2018-05-31T06:57:17.838Z,101104.23
2018-05-31T06:59:45.992Z,101104.33
2018-05-31T07:02:14.122Z,101098.59
2018-05-31T07:04:42.242Z,101098.92
2018-05-31T07:07:10.406Z,101095.17
2018-05-31T07:09:38.504Z,101095.41
2018-05-31T07:12:06.646Z,101097.39
2018-05-31T07:14:34.781Z,101103.95
2018-05-31T07:17:02.899Z,101102.88
2018-05-31T07:19:31.076Z,101102.41
2018-05-31T07:21:59.193Z,101100.11
2018-05-31T07:24:27.322Z,101096.23
2018-05-31T07:26:55.474Z,101104.08
2018-05-31T07:29:23.595Z,101102.05
2018-05-31T07:31:51.726Z,101103.98
2018-05-31T07:34:19.849Z,101109.56
2018-05-31T07:36:47.960Z,101112.81
2018-05-31T07:39:16.103Z,101111.41
2018-05-31T07:41:44.212Z,101111.80
2018-05-31T07:44:12.370Z,101107.33
2018-05-31T07:46:40.507Z,101114.04
2018-05-31T07:49:08.627Z,101108.67
2018-05-31T07:51:36.777Z,101102.70
2018-05-31T07:54:04.893Z,101107.50
2018-05-31T07:56:33.113Z,101102.97
2018-05-31T07:59:01.260Z,101104.02
2018-05-31T08:01:29.410Z,101096.02
2018-05-31T08:03:57.699Z,101096.91
2018-05-31T08:06:25.848Z,101087.21
2018-05-31T08:08:53.986Z,101086.67
2018-05-31T08:11:22.118Z,101087.66
2018-05-31T08:13:50.203Z,101089.34
2018-05-31T08:16:18.339Z,101095.41
2018-05-31T08:18:46.507Z,101084.41
2018-05-31T08:21:14.610Z,101082.84
2018-05-31T08:23:42.761Z,101084.95
2018-05-31T08:26:10.875Z,101088.42
2018-05-31T08:28:39.004Z,101089.30
2018-05-31T08:31:07.122Z,101091.86
2018-05-31T08:33:35.248Z,101087.41
2018-05-31T08:36:03.370Z,101086.95
2018-05-31T08:38:31.505Z,101087.75
2018-05-31T08:40:59.633Z,101091.95
2018-05-31T08:43:27.766Z,101090.84
2018-05-31T08:45:55.923Z,101099.95
2018-05-31T08:48:25.533Z,101105.45
2018-05-31T08:50:53.662Z,101104.65
2018-05-31T08:53:21.946Z,101105.83
2018-05-31T08:55:50.070Z,101104.41
2018-05-31T08:58:18.368Z,101103.12
2018-05-31T09:00:46.533Z,101107.63
2018-05-31T09:03:14.731Z,101105.56
2018-05-31T09:05:42.961Z,101109.23
2018-05-31T09:08:11.081Z,101108.77
2018-05-31T09:10:39.207Z,101105.52
2018-05-31T09:13:07.347Z,101108.27
2018-05-31T09:15:35.478Z,101108.54
2018-05-31T09:18:03.613Z,101105.07
2018-05-31T09:20:31.775Z,101107.89
2018-05-31T09:22:59.890Z,101107.02
2018-05-31T09:25:28.015Z,101111.05
2018-05-31T09:27:56.142Z,101104.72
2018-05-31T09:30:24.294Z,101117.88
2018-05-31T09:32:52.419Z,101117.61
2018-05-31T09:35:22.442Z,101120.58
2018-05-31T09:37:54.704Z,101116.88
2018-05-31T09:40:22.848Z,101115.58
2018-05-31T09:42:50.985Z,101112.52
2018-05-31T09:45:19.156Z,101105.88
2018-05-31T09:47:47.291Z,101111.13
2018-05-31T09:50:15.397Z,101113.36
2018-05-31T09:52:44.825Z,101114.14
2018-05-31T09:55:14.330Z,101114.16
2018-05-31T09:57:42.455Z,101105.30
2018-05-31T10:00:10.613Z,101107.59
2018-05-31T10:02:42.576Z,101103.45
2018-05-31T10:05:10.828Z,101109.09
2018-05-31T10:07:39.206Z,101106.63
2018-05-31T10:10:07.590Z,101110.38
2018-05-31T10:12:35.727Z,101111.33
2018-05-31T10:15:03.863Z,101107.81
2018-05-31T10:17:35.210Z,101107.92
2018-05-31T10:20:03.337Z,101111.16
2018-05-31T10:22:31.461Z,101105.34
2018-05-31T10:24:59.613Z,101103.70
2018-05-31T10:27:27.738Z,101106.66
2018-05-31T10:29:55.877Z,101107.18
2018-05-31T10:32:24.011Z,101106.81
2018-05-31T10:34:52.175Z,101109.34
2018-05-31T10:37:21.499Z,101109.80
2018-05-31T10:39:49.851Z,101108.23
2018-05-31T10:42:17.974Z,101114.52
2018-05-31T10:44:47.275Z,101106.92
2018-05-31T10:47:15.419Z,101109.52
2018-05-31T10:49:43.569Z,101117.18
2018-05-31T10:52:11.693Z,101104.80
2018-05-31T10:54:39.838Z,101105.50
2018-05-31T10:57:07.991Z,101103.04
2018-05-31T10:59:36.111Z,101103.30
2018-05-31T11:02:04.246Z,101102.57
2018-05-31T11:04:32.376Z,101102.83
2018-05-31T11:07:00.533Z,101102.23
2018-05-31T11:09:28.664Z,101105.14
2018-05-31T11:11:56.764Z,101100.12
2018-05-31T11:14:24.902Z,101107.83
2018-05-31T11:16:53.049Z,101105.50
2018-05-31T11:19:21.475Z,101099.17
2018-05-31T11:21:49.586Z,101100.81
2018-05-31T11:24:17.710Z,101104.98
2018-05-31T11:26:45.912Z,101106.65
2018-05-31T11:29:14.098Z,101104.07
2018-05-31T11:31:42.218Z,101092.72
2018-05-31T11:34:10.339Z,101099.14
2018-05-31T11:36:38.471Z,101095.16
2018-05-31T11:39:06.611Z,101102.45
2018-05-31T11:41:34.744Z,101104.65
2018-05-31T11:44:02.883Z,101109.42
2018-05-31T11:46:31.011Z,101108.56
2018-05-31T11:48:59.143Z,101106.18
2018-05-31T11:51:27.269Z,101106.93
2018-05-31T11:53:55.409Z,101102.91
2018-05-31T11:56:23.732Z,101107.23
2018-05-31T11:58:51.848Z,101102.20
2018-05-31T12:01:19.968Z,101096.58
2018-05-31T12:03:48.108Z,101094.26
2018-05-31T12:06:16.248Z,101094.05
2018-05-31T12:08:44.597Z,101093.67
2018-05-31T12:13:39.995Z,101095.84
2018-05-31T12:16:08.149Z,101089.54
2018-05-31T12:18:36.256Z,101095.47
2018-05-31T12:21:04.631Z,101087.43
2018-05-31T12:23:32.777Z,101088.66
2018-05-31T12:26:00.903Z,101083.30
2018-05-31T12:28:29.050Z,101090.22
2018-05-31T12:30:57.178Z,101085.61
2018-05-31T12:33:25.349Z,101082.34
2018-05-31T12:35:53.534Z,101082.63
2018-05-31T12:38:21.683Z,101073.72
2018-05-31T12:40:49.819Z,101076.73
2018-05-31T12:43:17.964Z,101072.62
2018-05-31T12:45:46.108Z,101055.73
2018-05-31T12:48:14.263Z,101058.52
2018-05-31T12:50:42.407Z,101060.19
2018-05-31T12:53:10.559Z,101065.43
2018-05-31T12:55:38.709Z,101064.46
2018-05-31T12:58:06.854Z,101061.16
2018-05-31T13:00:35.014Z,101050.56
2018-05-31T13:03:03.173Z,101058.27
2018-05-31T13:05:31.459Z,101051.61
2018-05-31T13:08:01.588Z,101046.19
2018-05-31T13:10:29.714Z,101038.97
2018-05-31T13:12:58.141Z,101036.52
2018-05-31T13:15:26.280Z,101030.91
2018-05-31T13:17:54.698Z,101021.98
2018-05-31T13:20:22.819Z,101016.00
2018-05-31T13:22:50.960Z,101024.28
2018-05-31T13:25:19.125Z,101020.27
2018-05-31T13:27:47.253Z,101019.69
2018-05-31T13:30:15.418Z,101029.65
2018-05-31T13:32:43.542Z,101022.12
2018-05-31T13:35:11.696Z,101030.21
2018-05-31T13:37:39.824Z,101029.29
2018-05-31T13:40:07.989Z,101022.59
2018-05-31T13:42:36.134Z,101021.97
2018-05-31T13:45:04.259Z,101029.42
2018-05-31T13:47:32.395Z,101031.95
2018-05-31T13:50:00.540Z,101029.78
2018-05-31T13:52:32.078Z,101032.12
2018-05-31T13:55:00.246Z,101027.03
2018-05-31T13:57:30.276Z,101037.79
2018-05-31T13:59:58.400Z,101039.99
2018-05-31T14:02:26.532Z,101045.22
2018-05-31T14:04:54.691Z,101052.83
2018-05-31T14:07:22.826Z,101063.22
2018-05-31T14:09:50.952Z,101052.64
2018-05-31T14:12:19.098Z,101053.59
2018-05-31T14:14:47.257Z,101051.86
2018-05-31T14:17:15.409Z,101052.66
2018-05-31T14:19:43.554Z,101045.69
2018-05-31T14:22:11.726Z,101046.28
2018-05-31T14:24:39.871Z,101035.79
2018-05-31T14:27:08.011Z,101031.14
2018-05-31T14:29:36.128Z,101021.54
2018-05-31T14:32:04.277Z,101022.02
2018-05-31T14:34:32.427Z,101018.20
2018-05-31T14:37:00.541Z,101020.61
2018-05-31T14:39:28.691Z,101019.74
2018-05-31T14:41:56.827Z,101025.95
2018-05-31T14:44:25.003Z,101026.66
2018-05-31T14:46:53.124Z,101035.42
2018-05-31T14:49:21.499Z,101031.57
2018-05-31T14:51:49.654Z,101025.95
2018-05-31T14:54:17.793Z,101026.60
2018-05-31T14:56:46.001Z,101030.73
2018-05-31T14:59:14.098Z,101029.30
2018-05-31T15:01:42.252Z,101029.98
2018-05-31T15:04:10.440Z,101027.33
2018-05-31T15:06:38.523Z,101022.70
2018-05-31T15:09:06.695Z,101024.83
2018-05-31T15:11:34.822Z,101017.09
2018-05-31T15:14:02.969Z,101017.59
2018-05-31T15:16:31.133Z,101016.11
2018-05-31T15:18:59.255Z,101014.16
2018-05-31T15:21:27.402Z,101007.50
2018-05-31T15:23:55.542Z,101016.59
2018-05-31T15:26:23.681Z,101009.45
2018-05-31T15:28:51.821Z,101008.22
2018-05-31T15:31:20.857Z,101012.18
2018-05-31T15:33:49.527Z,101011.95
2018-05-31T15:36:17.674Z,101022.67
2018-05-31T15:38:45.817Z,101025.84
2018-05-31T15:41:13.943Z,101023.11
2018-05-31T15:43:42.060Z,101023.91
2018-05-31T15:46:10.241Z,101026.90
2018-05-31T15:48:38.350Z,101026.01
2018-05-31T15:51:06.488Z,101026.42
2018-05-31T15:53:34.623Z,101020.70
2018-05-31T15:56:02.749Z,101021.21
2018-05-31T15:58:31.047Z,101014.84
2018-05-31T16:00:59.186Z,101007.50
2018-05-31T16:03:27.304Z,100999.06
2018-05-31T16:05:55.450Z,100996.61
2018-05-31T16:08:23.574Z,101002.41
2018-05-31T16:10:51.721Z,100995.53
2018-05-31T16:13:19.850Z,100995.05
2018-05-31T16:15:47.969Z,100997.92
2018-05-31T16:18:16.145Z,100997.67
2018-05-31T16:20:44.267Z,100996.59
2018-05-31T16:23:12.418Z,100997.34
2018-05-31T16:25:40.604Z,101004.23
2018-05-31T16:28:08.730Z,101006.27
2018-05-31T16:30:36.875Z,101006.25
2018-05-31T16:33:05.142Z,101004.39
2018-05-31T16:35:33.289Z,100999.12
2018-05-31T16:38:01.418Z,100998.53
2018-05-31T16:40:29.569Z,100999.82
2018-05-31T16:42:57.732Z,100995.00
2018-05-31T16:45:25.867Z,100994.52
2018-05-31T16:47:54.003Z,100997.59
2018-05-31T16:50:22.160Z,101000.19
2018-05-31T16:52:50.290Z,100991.66
2018-05-31T16:55:18.456Z,100991.25
2018-05-31T16:57:46.612Z,100977.39
2018-05-31T17:00:14.773Z,100974.55
2018-05-31T17:02:43.809Z,100977.30
2018-05-31T17:05:12.010Z,100977.47
2018-05-31T17:07:40.107Z,100983.40
2018-05-31T17:10:08.278Z,100979.59
2018-05-31T17:12:36.422Z,100980.64
2018-05-31T17:15:04.566Z,100984.09
2018-05-31T17:17:32.698Z,100981.98
2018-05-31T17:20:00.849Z,100980.37
2018-05-31T17:22:28.983Z,100985.31
2018-05-31T17:24:57.150Z,100988.95
2018-05-31T17:27:25.286Z,100987.66
2018-05-31T17:29:53.436Z,100989.67
2018-05-31T17:32:21.586Z,100985.09
2018-05-31T17:34:49.735Z,100990.70
2018-05-31T17:37:17.890Z,100996.77
2018-05-31T17:39:46.024Z,100991.48
2018-05-31T17:42:14.148Z,100994.41
2018-05-31T17:44:42.384Z,100990.31
2018-05-31T17:47:10.504Z,100988.16
2018-05-31T17:49:38.656Z,100982.20
2018-05-31T17:52:06.795Z,100985.61
2018-05-31T17:54:34.926Z,100983.48
2018-05-31T17:57:03.082Z,100993.41
2018-05-31T17:59:32.585Z,100992.03
2018-05-31T18:02:00.964Z,100996.41
2018-05-31T18:04:30.128Z,101000.58
2018-05-31T18:06:58.623Z,100995.39
2018-05-31T18:09:26.758Z,101003.70
2018-05-31T18:11:55.099Z,100997.96
2018-05-31T18:14:23.268Z,101003.16
2018-05-31T18:16:51.371Z,101005.20
2018-05-31T18:19:19.892Z,101007.52
2018-05-31T18:21:48.046Z,101006.46
2018-05-31T18:24:16.167Z,101005.15
2018-05-31T18:26:44.296Z,101004.55
2018-05-31T18:29:12.420Z,100999.52
2018-05-31T18:31:40.577Z,101002.44
2018-05-31T18:34:08.897Z,101006.92
2018-05-31T18:36:37.018Z,101001.06
2018-05-31T18:39:06.057Z,101000.64
2018-05-31T18:41:34.201Z,101005.38
2018-05-31T18:44:02.334Z,101005.77
2018-05-31T18:46:30.478Z,101011.56
2018-05-31T18:48:58.638Z,101017.67
2018-05-31T18:51:26.752Z,101021.46
2018-05-31T18:53:54.894Z,101008.09
2018-05-31T18:56:23.034Z,101001.71
2018-05-31T18:58:51.288Z,100998.05
2018-05-31T19:01:19.435Z,101004.94
2018-05-31T19:03:47.552Z,101002.63
2018-05-31T19:06:15.681Z,101009.91
2018-05-31T19:08:43.821Z,101016.02
2018-05-31T19:11:11.971Z,101006.87
2018-05-31T19:13:45.815Z,101004.50
2018-05-31T19:16:14.106Z,101008.33
2018-05-31T19:18:47.840Z,101013.69
2018-05-31T19:21:16.046Z,101009.67
2018-05-31T19:23:44.243Z,101011.00
2018-05-31T19:26:12.311Z,101021.84
2018-05-31T19:28:40.461Z,101022.27
2018-05-31T19:31:10.533Z,101034.14
2018-05-31T19:33:38.679Z,101037.56
2018-05-31T19:36:12.440Z,101041.05
2018-05-31T19:38:43.929Z,101044.81
2018-05-31T19:41:12.050Z,101044.18
2018-05-31T19:43:45.768Z,101039.77
2018-05-31T19:46:13.906Z,101056.33
2018-05-31T19:48:42.439Z,101062.48
2018-05-31T19:51:10.588Z,101064.57
2018-05-31T19:53:43.624Z,101064.63
2018-05-31T19:56:11.770Z,101060.03
2018-05-31T19:58:45.639Z,101061.93
2018-05-31T20:01:19.358Z,101066.53
2018-05-31T20:03:47.501Z,101071.70
2018-05-31T20:06:15.656Z,101066.52
2018-05-31T20:08:43.786Z,101070.66
2018-05-31T20:11:11.917Z,101068.92
2018-05-31T20:13:40.047Z,101076.36
2018-05-31T20:16:08.277Z,101080.02
2018-05-31T20:18:36.432Z,101085.41
2018-05-31T20:21:04.587Z,101083.48
2018-05-31T20:23:32.712Z,101079.03
2018-05-31T20:26:00.835Z,101083.28
2018-05-31T20:28:28.961Z,101088.20
2018-05-31T20:30:57.171Z,101097.05
2018-05-31T20:33:25.268Z,101108.23
2018-05-31T20:35:53.417Z,101115.83
2018-05-31T20:38:21.575Z,101114.98
2018-05-31T20:40:49.688Z,101115.97
2018-05-31T20:43:17.820Z,101120.17
2018-05-31T20:45:45.992Z,101115.75
2018-05-31T20:48:14.142Z,101116.92
2018-05-31T20:50:42.254Z,101115.63
2018-05-31T20:53:10.635Z,101106.66
2018-05-31T20:55:38.798Z,101102.03
2018-05-31T20:58:06.913Z,101095.81
2018-05-31T21:00:35.238Z,101089.15
2018-05-31T21:03:03.385Z,101090.10
2018-05-31T21:05:31.567Z,101093.23
2018-05-31T21:07:59.662Z,101096.81
2018-05-31T21:10:27.786Z,101094.47
2018-05-31T21:12:55.948Z,101096.67
2018-05-31T21:15:24.102Z,101092.83
2018-05-31T21:17:52.220Z,101094.08
2018-05-31T21:20:20.462Z,101096.75
2018-05-31T21:22:48.662Z,101103.77
2018-05-31T21:25:16.752Z,101091.13
2018-05-31T21:27:44.914Z,101088.13
2018-05-31T21:30:13.050Z,101083.33
2018-05-31T21:32:41.179Z,101082.94
2018-05-31T21:35:09.344Z,101078.42
2018-05-31T21:37:37.538Z,101084.98
2018-05-31T21:40:05.659Z,101085.91
2018-05-31T21:42:33.815Z,101081.95
2018-05-31T21:45:02.021Z,101082.84
2018-05-31T21:47:30.156Z,101089.20
2018-05-31T21:50:01.901Z,101085.53
2018-05-31T21:52:33.778Z,101075.88
2018-05-31T21:55:01.909Z,101074.73
2018-05-31T21:57:30.165Z,101081.72
2018-05-31T21:59:58.332Z,101087.44
2018-05-31T22:02:26.459Z,101092.18
2018-05-31T22:04:54.609Z,101084.57
2018-05-31T22:07:22.756Z,101086.66
2018-05-31T22:09:50.939Z,101083.38
2018-05-31T22:12:19.105Z,101085.97
2018-05-31T22:14:47.278Z,101088.41
2018-05-31T22:17:15.406Z,101091.91
2018-05-31T22:19:46.723Z,101097.47
2018-05-31T22:22:14.845Z,101088.55
2018-05-31T22:24:42.981Z,101088.59
2018-05-31T22:27:11.139Z,101084.36
2018-05-31T22:29:39.757Z,101090.11
2018-05-31T22:32:07.945Z,101091.45
2018-05-31T22:34:36.069Z,101087.87
2018-05-31T22:37:04.264Z,101079.05
2018-05-31T22:39:32.425Z,101078.53
2018-05-31T22:42:00.565Z,101078.29
2018-05-31T22:44:28.774Z,101075.89
2018-05-31T22:46:56.960Z,101066.98
2018-05-31T22:49:25.208Z,101061.70
2018-05-31T22:51:53.375Z,101061.73
2018-05-31T22:54:21.506Z,101046.97
2018-05-31T22:56:49.714Z,101046.97
2018-05-31T22:59:17.934Z,101052.23
2018-05-31T23:01:46.128Z,101048.83
2018-05-31T23:04:14.316Z,101057.51
2018-05-31T23:06:42.470Z,101058.73
2018-05-31T23:09:10.651Z,101051.88
2018-05-31T23:11:38.925Z,101047.48
2018-05-31T23:14:07.108Z,101039.45
2018-05-31T23:16:35.242Z,101045.53
2018-05-31T23:19:03.382Z,101049.31
2018-05-31T23:21:31.530Z,101048.27
2018-05-31T23:32:37.388Z,101062.72
2018-05-31T23:35:05.534Z,101057.13
2018-05-31T23:37:33.667Z,101064.52
2018-05-31T23:40:01.800Z,101063.23
2018-05-31T23:42:29.948Z,101062.02
2018-05-31T23:44:58.082Z,101063.52
2018-05-31T23:47:26.212Z,101067.73
2018-05-31T23:49:54.360Z,101076.05
2018-05-31T23:52:22.514Z,101074.80
2018-05-31T23:54:50.647Z,101079.20
2018-05-31T23:57:18.835Z,101081.67
2018-05-31T23:59:47.011Z,101081.67
